Time;durP1;ratioP1;P1;durP2;ratioP2;P2;SDS_P1;SDS_P2;PMS_P1;PMS_P2;Temp;Humidity;BMP_temperature;BMP_pressure;BME280_temperature;BME280_humidity;BME280_pressure;Samples;Min_cycle;Max_cycle;Signal;HPM_P1;HPM_P2
2023/03/19 00:01:06;;;;;;;;;;;13.50;44.80;;;12.01;45.48;100977.44;12270356;19;19924;-84
2023/03/19 00:05:08;;;;;;;;;;;13.40;44.50;;;12.19;45.31;101010.41;12270566;19;20391;-84
2023/03/19 00:09:10;;;;;;;;;;;13.40;44.80;;;12.25;45.35;101030.16;12272037;19;19948;-83
2023/03/19 00:13:12;;;;;;;;;;;13.30;44.50;;;12.15;45.43;101027.22;12266814;19;19938;-84
2023/03/19 00:17:13;;;;;;;;;;;13.20;44.40;;;12.01;45.58;101008.84;12269099;19;20231;-84
2023/03/19 00:21:18;;;;;;;;;;;13.20;44.60;;;11.74;45.31;100989.34;12266605;19;20155;-84
2023/03/19 00:25:20;;;;;;;;;;;13.10;44.40;;;11.81;45.48;101008.16;12265368;19;19919;-83
2023/03/19 00:29:22;;;;;;;;;;;13.00;44.40;;;11.64;45.40;100997.81;12265463;19;19922;-83
2023/03/19 00:33:24;;;;;;;;;;;12.90;44.40;;;11.66;45.50;101014.25;12265143;19;19946;-84
2023/03/19 00:37:26;;;;;;;;;;;12.80;44.40;;;11.51;45.39;101003.69;12262091;19;19927;-84
2023/03/19 00:41:28;;;;;;;;;;;12.70;44.40;;;11.44;45.45;101002.34;12268139;19;19922;-83
2023/03/19 00:45:29;;;;;;;;;;;12.70;44.50;;;11.49;45.58;101026.47;12262423;19;20686;-83
2023/03/19 00:49:31;;;;;;;;;;;12.60;44.50;;;11.31;45.59;101001.31;12266199;19;19919;-84
2023/03/19 00:53:37;;;;;;;;;;;12.60;44.60;;;11.06;45.75;100971.25;12262391;19;19919;-83
2023/03/19 00:57:40;;;;;;;;;;;12.50;44.60;;;11.36;45.53;101030.66;12258906;19;20258;-83
2023/03/19 01:01:41;;;;;;;;;;;12.50;44.60;;;11.16;45.71;101004.75;12263828;19;19911;-83
2023/03/19 01:05:46;;;;;;;;;;;12.40;44.70;;;11.15;45.62;101010.91;12264912;19;20361;-83
2023/03/19 01:09:47;;;;;;;;;;;12.30;44.70;;;11.14;45.60;101014.44;12278909;19;19918;-83
2023/03/19 01:13:49;;;;;;;;;;;12.30;44.70;;;11.21;45.63;101029.72;12274035;19;19929;-84
2023/03/19 01:17:51;;;;;;;;;;;12.30;44.70;;;11.03;45.58;101009.78;12271713;19;19926;-83
2023/03/19 01:21:52;;;;;;;;;;;12.30;44.80;;;11.14;45.76;101030.13;12273021;19;19923;-83
2023/03/19 01:25:57;;;;;;;;;;;12.30;44.80;;;11.06;45.76;101033.97;12272729;19;19939;-83
2023/03/19 01:30:00;;;;;;;;;;;12.20;44.70;;;11.00;45.73;101026.47;12272435;19;19919;-84
2023/03/19 01:34:39;;;;;;;;;;;12.20;44.80;;;10.87;45.71;101028.03;12268876;19;19953;-83
2023/03/19 01:38:46;;;;;;;;;;;12.10;44.70;;;10.88;45.78;101034.94;12269504;19;19919;-83
2023/03/19 01:42:52;;;;;;;;;;;12.10;44.70;;;10.83;45.92;101037.78;12276013;19;19922;-84
2023/03/19 01:47:37;;;;;;;;;;;12.00;44.70;;;10.70;45.85;101012.38;12274749;19;19915;-84
2023/03/19 01:51:46;;;;;;;;;;;12.00;44.80;;;10.60;45.99;101005.00;12277312;19;19919;-84
2023/03/19 01:56:18;;;;;;;;;;;11.90;44.80;;;10.65;45.96;101022.22;12275029;19;19923;-83
2023/03/19 02:00:34;;;;;;;;;;;11.90;44.70;;;10.55;45.87;101014.84;12275663;19;19930;-83
2023/03/19 02:04:39;;;;;;;;;;;11.80;44.80;;;10.49;45.89;101015.16;12269028;19;20321;-84
2023/03/19 02:08:41;;;;;;;;;;;11.80;44.80;;;10.56;45.95;101032.22;12265280;19;19943;-83
2023/03/19 02:12:43;;;;;;;;;;;11.70;44.80;;;10.49;46.00;101022.97;12268312;19;19925;-83
2023/03/19 02:16:45;;;;;;;;;;;11.70;44.80;;;10.50;46.06;101019.44;12294411;19;19914;-83
2023/03/19 02:20:49;;;;;;;;;;;11.60;44.90;;;10.36;45.95;100996.63;12312403;19;19919;-83
2023/03/19 02:25:15;;;;;;;;;;;11.60;44.90;;;10.44;46.12;101021.53;12312000;19;19907;-83
2023/03/19 02:29:19;;;;;;;;;;;11.60;44.90;;;10.11;45.97;100978.72;12309890;19;19918;-83
2023/03/19 02:33:22;;;;;;;;;;;11.50;44.90;;;10.33;46.03;101011.63;12299709;19;19919;-84
2023/03/19 02:37:28;;;;;;;;;;;11.50;45.00;;;10.23;45.86;100997.28;12288636;19;20276;-84
2023/03/19 02:41:31;;;;;;;;;;;11.50;45.00;;;9.97;46.03;100970.72;12292660;19;19916;-84
2023/03/19 02:45:33;;;;;;;;;;;11.40;45.10;;;10.23;46.17;101007.72;12288564;19;19922;-84
2023/03/19 02:49:35;;;;;;;;;;;11.40;45.10;;;9.85;46.16;100961.72;12290553;19;19919;-85
2023/03/19 02:53:37;;;;;;;;;;;11.40;45.10;;;9.92;46.21;100975.31;12286714;19;19922;-84
2023/03/19 02:57:38;;;;;;;;;;;11.30;45.10;;;10.16;46.12;101018.47;12282423;19;19915;-84
2023/03/19 03:01:40;;;;;;;;;;;11.30;45.10;;;10.13;46.21;101013.41;12282941;19;19915;-84
2023/03/19 03:05:42;;;;;;;;;;;11.30;45.20;;;9.96;46.17;100998.59;12283098;19;19910;-84
2023/03/19 03:09:43;;;;;;;;;;;11.30;45.20;;;10.10;46.17;101025.75;12285579;19;19928;-84
2023/03/19 03:13:45;;;;;;;;;;;11.20;45.10;;;10.09;46.22;101031.88;12281975;19;19918;-84
2023/03/19 03:17:47;;;;;;;;;;;11.20;45.20;;;10.09;46.25;101030.13;12278927;19;19915;-84
2023/03/19 03:21:48;;;;;;;;;;;11.20;45.20;;;10.09;46.41;101019.69;12282319;19;19919;-84
2023/03/19 03:25:51;;;;;;;;;;;11.20;45.30;;;9.98;46.29;101011.53;12280827;19;19919;-84
2023/03/19 03:29:52;;;;;;;;;;;11.20;45.30;;;9.95;46.43;101015.13;12279102;19;19947;-84
2023/03/19 03:33:54;;;;;;;;;;;11.20;45.20;;;9.84;46.30;101006.13;12279077;19;19926;-84
2023/03/19 03:37:56;;;;;;;;;;;11.20;45.30;;;9.88;46.49;101016.38;12277712;19;20589;-84
2023/03/19 03:41:58;;;;;;;;;;;11.10;45.20;;;9.61;46.41;100987.19;12279342;19;19917;-83
2023/03/19 03:46:00;;;;;;;;;;;11.10;45.20;;;9.88;46.48;101018.09;12276426;19;19938;-83
2023/03/19 03:50:04;;;;;;;;;;;11.10;45.30;;;9.86;46.66;101025.19;12276913;19;19938;-84
2023/03/19 03:54:06;;;;;;;;;;;11.10;45.30;;;9.61;46.52;100988.97;12275594;19;19922;-83
2023/03/19 03:58:08;;;;;;;;;;;11.10;45.30;;;9.94;46.53;101043.91;12274071;19;19922;-84
2023/03/19 04:02:10;;;;;;;;;;;11.10;45.40;;;9.93;46.62;101048.25;12277114;19;19919;-83
2023/03/19 04:06:17;;;;;;;;;;;11.10;45.30;;;9.68;46.58;101009.47;12272760;19;19926;-84
2023/03/19 04:10:21;;;;;;;;;;;11.10;45.30;;;9.87;46.76;101048.56;12275875;19;19966;-83
2023/03/19 04:14:23;;;;;;;;;;;11.20;45.40;;;9.96;46.57;101074.25;12271985;19;19926;-84
2023/03/19 04:18:25;;;;;;;;;;;11.20;45.50;;;9.87;46.75;101063.38;12270429;19;19947;-84
2023/03/19 04:22:27;;;;;;;;;;;11.20;45.40;;;9.89;46.76;101075.44;12271437;19;19919;-84
2023/03/19 04:26:29;;;;;;;;;;;11.20;45.50;;;9.91;46.63;101075.34;12273137;19;19907;-84
2023/03/19 04:30:31;;;;;;;;;;;11.20;45.50;;;9.95;46.72;101089.94;12272086;19;19914;-83
2023/03/19 04:34:35;;;;;;;;;;;11.20;45.50;;;9.91;46.62;101089.25;12270638;19;19958;-84
2023/03/19 04:38:37;;;;;;;;;;;11.20;45.60;;;9.96;46.77;101096.84;12270691;19;19978;-83
2023/03/19 04:42:38;;;;;;;;;;;11.20;45.50;;;9.97;46.78;101101.16;12280434;19;19922;-83
2023/03/19 04:46:48;;;;;;;;;;;11.20;45.50;;;9.93;46.84;101091.78;12280279;19;19958;-84
2023/03/19 04:50:52;;;;;;;;;;;11.20;45.50;;;9.82;46.88;101074.00;12282892;19;19929;-83
2023/03/19 04:54:54;;;;;;;;;;;11.20;45.60;;;9.93;46.73;101083.94;12278526;19;19954;-83
2023/03/19 04:58:56;;;;;;;;;;;11.20;45.50;;;9.83;46.75;101086.16;12281184;19;19919;-84
2023/03/19 05:02:58;;;;;;;;;;;11.30;45.60;;;9.82;46.94;101075.78;12281867;19;19954;-83
2023/03/19 05:07:00;;;;;;;;;;;11.20;45.50;;;9.86;46.75;101096.44;12279106;19;19998;-83
2023/03/19 05:11:04;;;;;;;;;;;11.20;45.50;;;9.72;46.87;101080.56;12276754;19;19940;-83
2023/03/19 05:15:16;;;;;;;;;;;11.20;45.50;;;9.82;46.97;101099.25;12275245;19;19921;-83
2023/03/19 05:19:27;;;;;;;;;;;11.10;45.50;;;9.71;46.92;101087.56;12280907;19;19930;-84
2023/03/19 05:23:30;;;;;;;;;;;11.10;45.50;;;9.52;46.84;101053.66;12282595;19;19906;-84
2023/03/19 05:27:39;;;;;;;;;;;11.20;45.70;;;9.54;46.97;101056.19;12274480;19;19930;-83
2023/03/19 05:31:44;;;;;;;;;;;11.10;45.50;;;9.65;46.96;101073.97;12276790;19;20332;-83
2023/03/19 05:35:50;;;;;;;;;;;11.10;45.50;;;9.54;46.98;101056.19;12276321;19;19919;-84
2023/03/19 05:40:06;;;;;;;;;;;11.00;45.60;;;9.57;46.96;101079.53;12275307;19;19915;-84
2023/03/19 05:44:10;;;;;;;;;;;11.00;45.60;;;9.60;47.11;101086.34;12276480;19;19922;-83
2023/03/19 05:48:37;;;;;;;;;;;10.90;45.60;;;9.59;47.11;101101.16;12273317;19;19923;-83
2023/03/19 05:52:43;;;;;;;;;;;10.90;45.70;;;9.54;47.00;101079.66;12272435;19;20240;-83
2023/03/19 05:56:45;;;;;;;;;;;10.90;45.90;;;9.55;47.04;101076.13;12272301;19;19955;-83
2023/03/19 06:01:01;;;;;;;;;;;10.90;45.80;;;9.62;47.03;101090.59;12275502;19;19952;-83
2023/03/19 06:05:04;;;;;;;;;;;10.90;45.80;;;9.60;47.06;101083.75;12273128;19;19935;-83
2023/03/19 06:09:05;;;;;;;;;;;10.90;45.90;;;9.61;47.08;101088.88;12278724;19;19922;-83
2023/03/19 06:13:14;;;;;;;;;;;10.90;46.00;;;9.60;47.13;101081.16;12274012;19;19934;-83
2023/03/19 06:17:27;;;;;;;;;;;10.90;46.00;;;9.66;47.33;101091.28;12270599;19;19919;-84
2023/03/19 06:21:33;;;;;;;;;;;10.90;46.00;;;9.70;47.19;101098.06;12274815;19;19919;-85
2023/03/19 06:25:37;;;;;;;;;;;11.00;46.00;;;9.59;47.30;101077.69;12272316;19;19928;-83
2023/03/19 06:29:39;;;;;;;;;;;11.00;46.00;;;9.34;47.29;101017.16;12268324;19;20260;-83
2023/03/19 06:33:53;;;;;;;;;;;11.00;46.10;;;9.76;47.36;101084.75;12264968;19;19910;-84
2023/03/19 06:37:57;;;;;;;;;;;11.10;46.10;;;9.42;47.26;101033.28;12262641;19;19998;-84
2023/03/19 06:41:59;;;;;;;;;;;11.10;46.10;;;9.83;47.23;101095.72;12267828;19;19927;-84
2023/03/19 06:46:03;;;;;;;;;;;11.20;46.10;;;9.47;47.50;101039.97;12265024;19;20399;-83
2023/03/19 06:50:04;;;;;;;;;;;11.20;46.10;;;9.78;47.49;101084.69;12270056;19;19907;-84
2023/03/19 06:54:06;;;;;;;;;;;11.20;46.10;;;9.83;47.56;101091.38;12265977;19;20557;-83
2023/03/19 06:58:07;;;;;;;;;;;11.30;46.30;;;9.98;47.51;101110.69;12267506;19;19938;-84
2023/03/19 07:02:12;;;;;;;;;;;11.30;46.20;;;9.96;47.47;101108.16;12267628;19;19927;-84
2023/03/19 07:06:13;;;;;;;;;;;11.40;46.20;;;10.09;47.57;101118.00;12267959;19;19918;-85
2023/03/19 07:10:19;;;;;;;;;;;11.40;46.20;;;10.15;47.44;101133.38;12268726;19;19984;-83
2023/03/19 07:14:21;;;;;;;;;;;11.50;46.20;;;9.79;47.67;101079.38;12267360;19;20312;-84
2023/03/19 07:18:22;;;;;;;;;;;11.60;46.30;;;10.04;47.48;101107.78;12263726;19;19925;-84
2023/03/19 07:22:24;;;;;;;;;;;11.60;46.20;;;10.32;47.77;101151.75;12267945;19;19910;-85
2023/03/19 07:26:25;;;;;;;;;;;11.70;46.20;;;10.39;47.55;101179.22;12264600;19;20340;-84
2023/03/19 07:30:27;;;;;;;;;;;11.80;46.30;;;10.32;47.72;101167.41;12267624;19;20014;-83
2023/03/19 07:34:28;;;;;;;;;;;11.80;46.30;;;10.21;47.62;101172.25;12265533;19;19967;-84
2023/03/19 07:38:30;;;;;;;;;;;12.10;46.40;;;10.52;47.60;101234.34;12263177;19;19915;-83
2023/03/19 07:42:31;;;;;;;;;;;12.00;46.40;;;10.55;47.80;101220.28;12263168;19;19926;-84
2023/03/19 07:46:33;;;;;;;;;;;12.00;46.50;;;10.66;47.79;101233.69;12258212;19;20339;-84
2023/03/19 07:50:35;;;;;;;;;;;12.10;46.50;;;10.45;47.78;101170.28;12261769;19;19938;-84
2023/03/19 07:54:36;;;;;;;;;;;12.10;46.40;;;10.81;47.75;101216.44;12260432;19;19949;-83
2023/03/19 07:58:38;;;;;;;;;;;12.20;46.60;;;10.90;47.90;101202.91;12258809;19;19919;-83
2023/03/19 08:02:41;;;;;;;;;;;12.30;46.30;;;10.90;48.07;101178.56;12255902;19;19919;-85
2023/03/19 08:06:42;;;;;;;;;;;12.40;46.80;;;11.00;47.88;101170.19;12258309;19;19942;-84
2023/03/19 08:10:44;;;;;;;;;;;12.50;46.70;;;11.17;48.03;101160.66;12262466;19;20360;-83
2023/03/19 08:14:46;;;;;;;;;;;12.60;48.20;;;11.24;48.16;101141.13;12256912;19;19956;-85
2023/03/19 08:18:47;;;;;;;;;;;12.70;46.90;;;11.51;48.00;101170.25;12259018;19;19919;-83
2023/03/19 08:22:49;;;;;;;;;;;12.90;47.10;;;11.62;48.01;101161.84;12259673;19;19993;-84
2023/03/19 08:26:51;;;;;;;;;;;13.00;47.10;;;11.65;47.98;101149.44;12255996;19;19918;-84
2023/03/19 08:30:54;;;;;;;;;;;13.20;47.10;;;11.74;48.27;101142.84;12258367;19;20332;-83
2023/03/19 08:34:56;;;;;;;;;;;13.30;47.00;;;11.92;48.28;101160.22;12253164;19;20375;-84
2023/03/19 08:38:57;;;;;;;;;;;13.40;47.30;;;12.07;48.17;101163.81;12258090;19;19994;-84
2023/03/19 08:43:00;;;;;;;;;;;13.60;48.10;;;12.16;48.19;101154.59;12255920;19;19920;-84
2023/03/19 08:47:02;;;;;;;;;;;13.70;48.20;;;12.46;48.04;101186.09;12256526;19;19982;-84
2023/03/19 08:51:04;;;;;;;;;;;13.80;47.80;;;12.56;48.13;101207.41;12254893;19;19927;-83
2023/03/19 08:55:07;;;;;;;;;;;14.00;47.70;;;12.67;48.10;101260.03;12249440;19;19919;-84
2023/03/19 08:59:08;;;;;;;;;;;14.10;47.60;;;12.60;48.08;101241.19;12257016;19;20270;-84
2023/03/19 09:03:09;;;;;;;;;;;14.20;47.40;;;12.70;48.05;101256.41;12255945;19;19914;-84
2023/03/19 09:07:12;;;;;;;;;;;14.20;47.30;;;12.70;47.92;101269.50;12256529;19;19909;-84
2023/03/19 09:11:15;;;;;;;;;;;14.30;47.10;;;12.86;48.00;101272.97;12256315;19;19915;-84
2023/03/19 09:15:17;;;;;;;;;;;14.40;47.10;;;12.82;48.15;101255.72;12251557;19;20400;-85
2023/03/19 09:19:18;;;;;;;;;;;14.40;47.10;;;12.85;48.10;101239.81;12251107;19;19910;-85
2023/03/19 09:23:20;;;;;;;;;;;14.40;47.20;;;13.02;48.14;101257.22;12254548;19;19922;-85
2023/03/19 09:27:22;;;;;;;;;;;14.50;47.10;;;12.90;48.02;101226.44;12256299;19;19919;-84
2023/03/19 09:31:25;;;;;;;;;;;14.50;48.40;;;12.92;48.18;101204.47;12266769;19;19919;-84
2023/03/19 09:35:30;;;;;;;;;;;14.50;48.10;;;12.96;48.00;101202.50;12260079;19;20332;-84
2023/03/19 09:39:32;;;;;;;;;;;14.50;47.60;;;12.93;48.15;101185.16;12267517;19;19914;-84
2023/03/19 09:43:36;;;;;;;;;;;14.50;46.80;;;12.82;48.37;101161.34;12266190;19;20455;-84
2023/03/19 09:47:38;;;;;;;;;;;14.40;47.20;;;12.79;48.39;101172.84;12259224;19;19926;-83
2023/03/19 09:51:50;;;;;;;;;;;14.30;47.70;;;12.71;48.35;101159.34;12267114;19;19923;-84
2023/03/19 09:55:53;;;;;;;;;;;14.20;48.10;;;12.70;48.44;101149.81;12259028;19;19945;-84
2023/03/19 09:59:55;;;;;;;;;;;14.20;49.00;;;12.65;48.41;101145.75;12261022;19;19964;-84
2023/03/19 10:04:16;;;;;;;;;;;14.10;48.70;;;12.73;48.39;101170.59;12260507;19;19936;-84
2023/03/19 10:08:40;;;;;;;;;;;14.10;48.90;;;12.25;48.46;101093.84;12259162;19;19934;-84
2023/03/19 10:13:17;;;;;;;;;;;14.10;48.80;;;12.79;48.62;101172.84;12261331;19;20308;-84
2023/03/19 10:17:24;;;;;;;;;;;14.10;48.90;;;12.83;48.52;101160.44;12259853;19;20352;-83
2023/03/19 10:21:47;;;;;;;;;;;14.10;49.90;;;12.89;48.51;101161.84;12262201;19;20321;-84
2023/03/19 10:25:52;;;;;;;;;;;14.10;49.30;;;12.92;48.66;101145.94;12263043;19;19966;-84
2023/03/19 10:29:54;;;;;;;;;;;14.40;49.40;;;12.99;48.62;101144.66;12262890;19;19914;-84
2023/03/19 10:34:05;;;;;;;;;;;14.30;49.40;;;13.04;48.51;101135.59;12254422;19;20978;-84
2023/03/19 10:38:19;;;;;;;;;;;14.40;49.40;;;13.26;48.87;101136.97;12246599;19;19915;-83
2023/03/19 10:42:37;;;;;;;;;;;14.50;49.90;;;13.17;48.77;101098.97;12254050;19;19925;-83
2023/03/19 10:46:40;;;;;;;;;;;14.70;50.60;;;13.59;48.88;101135.88;12252833;19;19915;-83
2023/03/19 10:50:52;;;;;;;;;;;14.80;50.60;;;13.70;48.97;101144.75;12255683;19;19923;-83
2023/03/19 10:54:59;;;;;;;;;;;15.00;51.30;;;13.79;48.85;101138.09;12251708;19;19922;-83
2023/03/19 10:59:06;;;;;;;;;;;15.20;51.10;;;13.95;48.89;101146.69;12253728;19;19914;-84
2023/03/19 11:03:25;;;;;;;;;;;15.30;50.20;;;14.10;49.01;101146.69;12256836;19;19918;-84
2023/03/19 11:07:27;;;;;;;;;;;15.40;50.00;;;14.27;49.08;101149.06;12257853;19;19926;-84
2023/03/19 11:11:41;;;;;;;;;;;15.60;49.80;;;14.38;49.12;101141.34;12258515;19;20274;-85
2023/03/19 11:15:46;;;;;;;;;;;15.70;49.60;;;14.48;49.09;101125.84;12254818;19;19911;-85
2023/03/19 11:19:53;;;;;;;;;;;15.90;50.00;;;14.50;49.18;101113.44;12254381;19;19907;-86
2023/03/19 11:24:02;;;;;;;;;;;16.00;49.70;;;14.62;49.11;101119.69;12253928;19;19907;-83
2023/03/19 11:28:06;;;;;;;;;;;16.10;50.00;;;14.83;49.09;101122.69;12254991;19;19915;-83
2023/03/19 11:32:31;;;;;;;;;;;16.20;49.60;;;14.93;49.12;101115.03;12254723;19;19915;-85
2023/03/19 11:36:47;;;;;;;;;;;16.30;49.40;;;15.01;49.40;101094.31;12254455;19;19918;-84
2023/03/19 11:41:02;;;;;;;;;;;16.40;49.80;;;15.16;49.13;101103.78;12258896;19;19922;-84
2023/03/19 11:45:25;;;;;;;;;;;16.50;49.90;;;15.22;49.16;101090.22;12255672;19;20338;-83
2023/03/19 11:49:36;;;;;;;;;;;16.60;49.50;;;15.37;49.21;101103.28;12251909;19;19919;-83
2023/03/19 11:53:45;;;;;;;;;;;16.70;49.10;;;15.37;49.14;101083.06;12253642;19;19915;-82
2023/03/19 11:57:47;;;;;;;;;;;16.80;49.90;;;15.60;49.24;101106.91;12255959;19;19918;-83
2023/03/19 12:02:08;;;;;;;;;;;16.90;49.40;;;15.69;49.16;101109.78;12259142;19;19950;-82
2023/03/19 12:06:28;;;;;;;;;;;17.00;49.30;;;15.80;49.14;101111.66;12254587;19;20270;-83
2023/03/19 12:10:45;;;;;;;;;;;17.10;49.30;;;15.78;48.94;101105.66;12255825;19;19926;-82
2023/03/19 12:15:30;;;;;;;;;;;17.20;49.80;;;15.96;49.25;101115.81;12253731;19;19926;-82
2023/03/19 12:19:50;;;;;;;;;;;17.30;49.60;;;16.07;48.99;101124.66;12254731;19;19915;-83
2023/03/19 12:24:13;;;;;;;;;;;17.40;49.20;;;16.08;49.07;101110.53;12260029;19;19922;-83
2023/03/19 12:28:33;;;;;;;;;;;17.50;49.50;;;16.22;49.11;101106.03;12252857;19;19915;-83
2023/03/19 12:32:59;;;;;;;;;;;17.60;49.50;;;16.38;49.20;101117.97;12258909;19;19932;-84
2023/03/19 12:37:03;;;;;;;;;;;17.70;49.40;;;16.52;49.03;101113.50;12252660;19;20265;-83
2023/03/19 12:41:10;;;;;;;;;;;17.80;49.40;;;16.61;49.23;101099.63;12280599;19;19914;-83
2023/03/19 12:45:29;;;;;;;;;;;17.90;49.00;;;16.75;49.20;101102.06;12279182;19;19927;-84
2023/03/19 12:49:52;;;;;;;;;;;18.10;49.00;;;16.85;48.83;101104.91;12274306;19;19946;-84
2023/03/19 12:54:30;;;;;;;;;;;18.20;48.90;;;16.93;49.16;101101.66;12277331;19;19959;-83
2023/03/19 12:58:53;;;;;;;;;;;18.30;48.80;;;16.99;49.25;101093.31;12273705;19;19915;-84
2023/03/19 13:03:15;;;;;;;;;;;18.30;48.60;;;17.07;48.88;101096.19;12281235;19;20005;-83
2023/03/19 13:07:26;;;;;;;;;;;18.40;48.60;;;17.10;49.06;101085.41;12281526;19;20276;-83
2023/03/19 13:11:47;;;;;;;;;;;18.50;48.80;;;17.31;48.97;101090.81;12280527;19;19929;-84
2023/03/19 13:15:52;;;;;;;;;;;18.60;48.60;;;17.36;48.88;101085.16;12278620;19;20225;-85
2023/03/19 13:19:55;;;;;;;;;;;18.70;48.40;;;17.44;48.83;101080.13;12273504;19;19915;-83
2023/03/19 13:24:23;;;;;;;;;;;18.80;48.40;;;17.59;48.86;101089.47;12270090;19;20285;-84
2023/03/19 13:28:30;;;;;;;;;;;18.90;48.40;;;17.56;48.87;101079.16;12270570;19;19918;-83
2023/03/19 13:33:02;;;;;;;;;;;19.00;48.80;;;17.66;48.95;101071.34;12274910;19;19914;-84
2023/03/19 13:37:17;;;;;;;;;;;19.10;48.30;;;17.77;49.01;101081.91;12268699;19;20325;-83
2023/03/19 13:41:34;;;;;;;;;;;19.20;48.30;;;17.90;48.74;101092.34;12271505;19;19979;-82
2023/03/19 13:45:37;;;;;;;;;;;19.20;48.10;;;17.89;48.77;101074.81;12273879;19;19910;-83
2023/03/19 13:49:58;;;;;;;;;;;19.30;48.10;;;18.03;48.99;101089.56;12273150;19;21087;-84
2023/03/19 13:54:00;;;;;;;;;;;19.30;48.00;;;18.07;48.66;101088.38;12272432;19;19921;-84
2023/03/19 13:58:48;;;;;;;;;;;19.40;48.00;;;18.10;48.92;101088.13;12272852;19;19918;-84
2023/03/19 14:02:38;;;;;;;;;;;19.40;47.90;;;18.13;48.67;101090.50;12275303;19;19923;-84
2023/03/19 14:06:40;;;;;;;;;;;19.50;47.90;;;18.11;48.66;101080.03;12266470;19;19930;-84
2023/03/19 14:10:49;;;;;;;;;;;19.50;47.60;;;18.14;48.58;101082.44;12272695;19;19915;-86
2023/03/19 14:15:08;;;;;;;;;;;19.50;47.60;;;18.18;48.49;101071.63;12250702;19;19944;-84
2023/03/19 14:19:11;;;;;;;;;;;19.50;47.40;;;18.18;48.51;101061.91;12269921;19;19931;-84
2023/03/19 14:23:22;;;;;;;;;;;19.60;47.20;;;18.27;48.66;101071.69;12266220;19;19931;-84
2023/03/19 14:27:31;;;;;;;;;;;19.60;47.50;;;18.28;48.48;101064.59;12266885;19;20257;-83
2023/03/19 14:31:35;;;;;;;;;;;19.60;47.30;;;18.33;48.48;101065.94;12267240;19;19911;-83
2023/03/19 14:35:43;;;;;;;;;;;19.60;47.30;;;18.25;48.54;101043.72;12265037;19;19935;-84
2023/03/19 14:39:49;;;;;;;;;;;19.70;47.30;;;18.34;48.77;101059.66;12268987;19;20233;-83
2023/03/19 14:43:53;;;;;;;;;;;19.70;47.60;;;18.39;48.59;101066.38;12265310;19;19923;-83
2023/03/19 14:48:06;;;;;;;;;;;19.70;46.80;;;18.29;48.40;101055.72;12265543;19;19918;-83
2023/03/19 14:52:19;;;;;;;;;;;19.70;47.10;;;18.33;48.48;101054.50;12258049;19;19926;-84
2023/03/19 14:56:29;;;;;;;;;;;19.70;47.20;;;18.37;48.51;101055.94;12264596;19;19918;-84
2023/03/19 15:00:45;;;;;;;;;;;19.70;47.20;;;18.43;48.45;101067.81;12268502;19;20010;-83
2023/03/19 15:04:47;;;;;;;;;;;19.70;47.20;;;18.41;48.31;101059.16;12269205;19;19911;-83
2023/03/19 15:08:49;;;;;;;;;;;19.70;47.10;;;18.26;48.23;101024.25;12267667;19;19915;-83
2023/03/19 15:13:24;;;;;;;;;;;19.70;47.10;;;18.49;48.31;101068.13;12259486;19;19930;-83
2023/03/19 15:17:30;;;;;;;;;;;19.80;47.20;;;18.43;48.35;101057.22;12265883;19;19918;-83
2023/03/19 15:21:31;;;;;;;;;;;19.80;47.20;;;18.50;48.26;101056.59;12269401;19;19914;-83
2023/03/19 15:25:33;;;;;;;;;;;19.80;47.20;;;18.40;48.28;101037.16;12266774;19;19915;-83
2023/03/19 15:29:34;;;;;;;;;;;19.70;47.20;;;18.48;48.15;101047.09;12266583;19;19923;-83
2023/03/19 15:33:37;;;;;;;;;;;19.80;47.20;;;18.44;48.35;101046.50;12268140;19;19930;-85
2023/03/19 15:37:42;;;;;;;;;;;19.80;47.20;;;18.49;48.39;101057.53;12266126;19;19923;-83
2023/03/19 15:41:47;;;;;;;;;;;19.80;47.20;;;18.42;48.19;101050.28;12265091;19;19919;-84
2023/03/19 15:45:51;;;;;;;;;;;19.80;47.20;;;18.50;48.34;101063.69;12264169;19;19925;-83
2023/03/19 15:49:58;;;;;;;;;;;19.80;47.30;;;18.55;48.30;101077.34;12268138;19;19957;-83
2023/03/19 15:54:01;;;;;;;;;;;19.80;47.20;;;18.53;48.13;101061.63;12274767;19;19923;-83
2023/03/19 15:58:08;;;;;;;;;;;19.80;47.30;;;18.42;48.06;101039.69;12258587;19;19915;-83
2023/03/19 16:02:16;;;;;;;;;;;19.80;47.30;;;18.21;48.09;101011.41;12258658;19;19918;-83
2023/03/19 16:06:26;;;;;;;;;;;19.80;47.30;;;18.47;48.20;101046.28;12262340;19;19933;-85
2023/03/19 16:10:39;;;;;;;;;;;19.80;47.30;;;18.58;48.34;101070.00;12259766;19;19919;-83
2023/03/19 16:14:42;;;;;;;;;;;19.80;47.30;;;18.56;48.25;101068.47;12261737;19;20644;-82
2023/03/19 16:18:49;;;;;;;;;;;19.80;47.30;;;18.58;48.07;101077.94;12255383;19;19930;-82
2023/03/19 16:22:57;;;;;;;;;;;19.80;47.30;;;18.55;48.22;101078.22;12262923;19;20340;-86
2023/03/19 16:27:02;;;;;;;;;;;19.80;47.30;;;18.51;48.11;101078.59;12261105;19;19923;-86
2023/03/19 16:31:03;;;;;;;;;;;19.80;47.30;;;18.45;48.02;101071.16;12260040;19;19919;-83
2023/03/19 16:35:18;;;;;;;;;;;19.80;47.30;;;18.40;47.98;101070.72;12257383;19;19911;-84
2023/03/19 16:39:29;;;;;;;;;;;19.80;47.30;;;18.53;47.94;101095.19;12257656;19;19954;-83
2023/03/19 16:43:33;;;;;;;;;;;19.80;47.30;;;18.44;48.13;101083.53;12259178;19;19915;-84
2023/03/19 16:47:34;;;;;;;;;;;19.70;47.30;;;18.39;48.04;101084.88;12257625;19;19919;-83
2023/03/19 16:51:36;;;;;;;;;;;19.70;47.30;;;18.40;48.15;101084.75;12260268;19;19923;-83
2023/03/19 16:55:37;;;;;;;;;;;19.70;47.30;;;18.27;47.99;101074.34;12252745;19;19927;-83
2023/03/19 16:59:39;;;;;;;;;;;19.60;47.30;;;18.32;48.18;101098.59;12254166;19;20185;-83
2023/03/19 17:03:41;;;;;;;;;;;19.60;47.30;;;18.15;47.99;101080.66;12254434;19;19923;-83
2023/03/19 17:07:43;;;;;;;;;;;19.60;47.30;;;18.22;48.01;101099.47;12254190;19;19937;-83
2023/03/19 17:11:44;;;;;;;;;;;19.50;47.40;;;18.25;47.92;101105.34;12249476;19;19903;-83
2023/03/19 17:15:48;;;;;;;;;;;19.50;47.40;;;18.17;48.17;101097.22;12247348;19;20336;-86
2023/03/19 17:19:50;;;;;;;;;;;19.40;47.30;;;18.10;48.00;101110.09;12256719;19;19923;-83
2023/03/19 17:23:52;;;;;;;;;;;19.40;47.40;;;18.13;48.12;101120.41;12256794;19;19943;-83
2023/03/19 17:27:53;;;;;;;;;;;19.30;47.40;;;18.09;47.92;101129.56;12252196;19;19923;-83
2023/03/19 17:31:56;;;;;;;;;;;19.30;47.40;;;17.93;48.03;101100.06;12258091;19;19934;-83
2023/03/19 17:35:58;;;;;;;;;;;19.20;47.50;;;17.96;48.09;101113.03;12251063;19;19922;-84
2023/03/19 17:39:59;;;;;;;;;;;19.10;47.40;;;17.94;47.97;101127.31;12256050;19;19941;-83
2023/03/19 17:44:01;;;;;;;;;;;19.10;47.40;;;17.84;47.87;101120.09;12251731;19;20562;-83
2023/03/19 17:48:02;;;;;;;;;;;19.10;47.50;;;17.81;48.02;101125.63;12249566;19;19939;-83
2023/03/19 17:52:11;;;;;;;;;;;19.00;47.50;;;17.80;47.88;101136.34;12264031;19;19914;-83
2023/03/19 17:56:18;;;;;;;;;;;19.00;47.50;;;17.74;48.15;101139.41;12259874;19;19919;-83
2023/03/19 18:00:23;;;;;;;;;;;18.90;47.40;;;17.70;47.86;101134.38;12267435;19;19946;-84
2023/03/19 18:04:25;;;;;;;;;;;18.90;47.50;;;17.68;48.06;101146.03;12263425;19;19923;-84
2023/03/19 18:08:26;;;;;;;;;;;18.80;47.40;;;17.51;48.06;101128.84;12258154;19;19950;-83
2023/03/19 18:12:28;;;;;;;;;;;18.70;47.50;;;17.50;47.93;101140.41;12262299;19;19915;-83
2023/03/19 18:16:30;;;;;;;;;;;18.70;47.50;;;17.50;47.95;101137.75;12262089;19;19937;-83
2023/03/19 18:20:37;;;;;;;;;;;18.60;47.50;;;17.31;47.85;101119.00;12264301;19;20341;-84
2023/03/19 18:24:39;;;;;;;;;;;18.60;47.50;;;17.43;47.90;101155.03;12265265;19;19935;-83
2023/03/19 18:28:40;;;;;;;;;;;18.50;47.50;;;17.35;48.07;101154.78;12257994;19;19955;-83
2023/03/19 18:32:44;;;;;;;;;;;18.50;47.50;;;17.28;47.94;101150.91;12265881;19;19926;-83